Time;durP1;ratioP1;P1;durP2;ratioP2;P2;SDS_P1;SDS_P2;PMS_P1;PMS_P2;Temp;Humidity;BMP_temperature;BMP_pressure;BME280_temperature;BME280_humidity;BME280_pressure;Samples;Min_cycle;Max_cycle;Signal;HPM_P1;HPM_P2
2022/01/23 00:02:24;;;;;;;15.88;6.87;;;;;;;-2.88;79.39;146960.33;1750571;80;21064;-58
2022/01/23 00:04:46;;;;;;;23.32;7.45;;;;;;;-2.89;79.65;146957.77;1752304;81;21057;-59
2022/01/23 00:07:15;;;;;;;20.32;6.95;;;;;;;-2.91;79.81;146952.63;1735918;81;21504;-59
2022/01/23 00:09:42;;;;;;;17.82;6.50;;;;;;;-2.91;80.13;146952.63;1744224;81;21095;-60
2022/01/23 00:12:17;;;;;;;18.77;7.08;;;;;;;-2.92;80.66;146950.06;1751940;81;21410;-61
2022/01/23 00:17:33;;;;;;;16.55;6.58;;;;;;;-2.93;81.06;146946.19;1726481;82;21684;-59
2022/01/23 00:19:57;;;;;;;10.35;5.62;;;;;;;-2.93;81.27;146947.50;1744012;81;22360;-59
2022/01/23 00:22:33;;;;;;;14.15;6.08;;;;;;;-2.91;81.50;146952.63;1746478;80;21039;-58
2022/01/23 00:30:27;;;;;;;12.68;5.08;;;;;;;-2.90;82.16;146955.19;1766238;80;20204;-59
2022/01/23 00:33:00;;;;;;;13.90;5.47;;;;;;;-2.92;82.18;146950.06;1737537;80;21133;-59
2022/01/23 00:35:27;;;;;;;14.45;5.50;;;;;;;-2.91;82.32;146951.31;1755594;81;22277;-58
2022/01/23 00:37:54;;;;;;;14.47;6.25;;;;;;;-2.91;82.77;146952.63;1748518;80;21064;-59
2022/01/23 00:40:22;;;;;;;14.05;5.10;;;;;;;-2.91;83.00;146952.63;1741385;80;21550;-59
2022/01/23 00:42:49;;;;;;;15.98;5.87;;;;;;;-2.91;83.60;146952.63;1756930;81;21524;-59
2022/01/23 00:47:43;;;;;;;16.12;6.47;;;;;;;-2.92;83.87;146950.06;1757207;80;22083;-58
2022/01/23 00:50:10;;;;;;;15.15;6.25;;;;;;;-2.92;84.15;146950.06;1765825;80;21111;-58
2022/01/23 00:52:37;;;;;;;17.77;6.78;;;;;;;-2.92;84.83;146950.06;1746787;80;21267;-59
2022/01/23 00:55:05;;;;;;;15.93;7.70;;;;;;;-2.92;84.81;146950.06;1743245;80;21461;-59
2022/01/23 00:57:33;;;;;;;14.47;6.62;;;;;;;-2.90;85.08;146955.19;1745245;80;21105;-59
2022/01/23 01:00:02;;;;;;;18.60;6.83;;;;;;;-2.84;85.20;146968.02;1752019;80;21575;-59
2022/01/23 01:02:29;;;;;;;20.75;7.47;;;;;;;-2.83;85.12;146970.59;1728959;82;21379;-59
2022/01/23 01:04:56;;;;;;;20.05;7.45;;;;;;;-2.82;85.01;146974.47;1744383;81;21020;-59
2022/01/23 01:07:22;;;;;;;15.43;6.62;;;;;;;-2.82;85.08;146973.16;1748540;81;21052;-59
2022/01/23 01:09:52;;;;;;;24.43;9.05;;;;;;;-2.84;85.47;146969.33;1743180;81;21811;-59
2022/01/23 01:12:23;;;;;;;182.35;60.70;;;;;;;-2.88;85.91;146960.33;1755573;80;21079;-59
2022/01/23 01:17:34;;;;;;;23.98;10.00;;;;;;;-2.92;86.61;146950.06;1757571;81;20969;-59
2022/01/23 01:31:08;;;;;;;21.25;7.45;;;;;;;-2.92;87.13;146950.06;1752616;81;21045;-60
2022/01/23 01:36:53;;;;;;;28.95;11.48;;;;;;;-2.96;87.52;146938.50;1752379;80;21791;-60
2022/01/23 01:38:35;;;;;;;52.10;18.98;;;;;;;-3.00;87.60;146929.50;1709580;81;21123;-61
2022/01/23 01:41:02;;;;;;;76.62;28.00;;;;;;;-2.99;87.71;146932.06;1749330;80;21646;-60
2022/01/23 01:43:31;;;;;;;40.80;15.00;;;;;;;-2.99;87.76;146932.06;1731942;81;21068;-60
2022/01/23 01:45:57;;;;;;;95.55;32.58;;;;;;;-2.99;88.01;146930.80;1744062;81;21032;-59
2022/01/23 01:48:26;;;;;;;58.00;20.30;;;;;;;-3.01;87.89;146926.94;1737036;81;21120;-59
2022/01/23 01:50:56;;;;;;;151.78;49.98;;;;;;;-3.01;88.05;146926.94;1746461;81;21017;-59
2022/01/23 01:53:23;;;;;;;157.78;55.85;;;;;;;-3.03;88.22;146921.80;1746597;80;21044;-59
2022/01/23 01:55:55;;;;;;;139.70;45.08;;;;;;;-3.07;88.36;146911.53;1739088;81;21097;-59
2022/01/23 02:09:41;;;;;;;231.07;73.72;;;;;;;-3.27;89.62;146862.75;1746698;80;21560;-59
2022/01/23 02:23:04;;;;;;;299.42;103.07;;;;;;;-3.34;90.08;146844.81;1758211;80;21271;-59
2022/01/23 02:53:15;;;;;;;57.25;20.08;;;;;;;-3.42;89.98;146825.56;1745674;80;21057;-59
2022/01/23 02:55:26;;;;;;;46.95;16.67;;;;;;;-3.45;89.92;146819.12;1747035;81;21478;-59
2022/01/23 02:57:55;;;;;;;31.12;11.35;;;;;;;-3.51;89.82;146803.73;1737922;81;21099;-59
2022/01/23 03:00:27;;;;;;;104.25;36.50;;;;;;;-3.53;89.82;146798.59;1741606;80;21061;-59
2022/01/23 03:03:04;;;;;;;40.45;15.25;;;;;;;-3.55;89.82;146792.17;1755764;80;21052;-59
2022/01/23 03:05:37;;;;;;;80.03;27.07;;;;;;;-3.58;89.95;146785.78;1736168;80;21525;-59
2022/01/23 03:08:19;;;;;;;139.80;47.53;;;;;;;-3.58;90.07;146785.78;1718812;81;21103;-59
2022/01/23 03:10:40;;;;;;;75.65;26.45;;;;;;;-3.59;90.06;146783.22;1675034;84;21473;-59
2022/01/23 03:13:54;;;;;;;50.45;17.25;;;;;;;-3.59;90.08;146783.22;1738114;80;21486;-59
2022/01/23 03:15:55;;;;;;;26.73;10.65;;;;;;;-3.60;90.10;146780.66;1708877;81;21150;-59
2022/01/23 03:29:05;;;;;;;14.23;6.10;;;;;;;-3.64;89.32;146770.41;1735940;80;21061;-59
2022/01/23 03:31:42;;;;;;;16.50;6.53;;;;;;;-3.67;89.32;146762.66;1722742;81;21076;-59
2022/01/23 03:34:00;;;;;;;21.57;8.55;;;;;;;-3.67;89.53;146763.97;1726611;81;21125;-59
2022/01/23 03:36:28;;;;;;;16.67;5.60;;;;;;;-3.70;89.57;146754.97;1739776;81;21081;-59
2022/01/23 03:38:54;;;;;;;11.60;5.40;;;;;;;-3.73;89.69;146748.59;1733182;81;21108;-59
2022/01/23 03:41:21;;;;;;;12.73;5.80;;;;;;;-3.75;89.70;146744.72;1725217;80;21420;-59
2022/01/23 03:43:48;;;;;;;12.70;5.67;;;;;;;-3.77;89.77;146739.59;1736410;80;21099;-59
2022/01/23 03:51:13;;;;;;;30.85;10.82;;;;;;;-3.75;89.88;146744.72;1733946;80;21005;-60
2022/01/23 03:53:41;;;;;;;24.45;7.25;;;;;;;-3.74;90.04;146747.28;1762471;80;21095;-60
2022/01/23 03:56:08;;;;;;;21.97;7.85;;;;;;;-3.72;90.09;146749.84;1748780;80;21514;-60
2022/01/23 03:58:37;;;;;;;17.30;5.97;;;;;;;-3.70;90.15;146754.97;1745273;80;21613;-59
2022/01/23 04:01:06;;;;;;;12.90;6.25;;;;;;;-3.68;90.12;146760.09;1746560;80;21001;-59
2022/01/23 04:03:36;;;;;;;17.23;5.03;;;;;;;-3.64;90.00;146770.41;1757837;81;21041;-58
2022/01/23 04:06:03;;;;;;;12.45;4.37;;;;;;;-3.62;89.72;146775.53;1728433;82;21042;-59
2022/01/23 04:08:31;;;;;;;11.40;5.17;;;;;;;-3.65;89.62;146769.09;1733800;82;21139;-59
2022/01/23 04:10:58;;;;;;;11.97;5.87;;;;;;;-3.67;89.63;146763.97;1695762;83;21145;-60
2022/01/23 04:13:36;;;;;;;10.63;5.12;;;;;;;-3.67;89.63;146762.66;1702388;83;21416;-59
2022/01/23 04:16:30;;;;;;;13.60;5.12;;;;;;;-3.66;89.63;146765.22;1702537;83;21581;-59
2022/01/23 04:19:08;;;;;;;32.20;12.55;;;;;;;-3.64;89.54;146770.41;1681528;83;21112;-59
2022/01/23 04:45:40;;;;;;;61.55;20.57;;;;;;;-3.55;89.26;146793.47;1747948;81;21095;-59
2022/01/23 05:04:47;;;;;;;13.85;5.70;;;;;;;-3.53;88.82;146798.59;1745701;81;21518;-59
2022/01/23 05:07:17;;;;;;;75.00;28.35;;;;;;;-3.56;88.70;146789.61;1736135;81;21100;-60
2022/01/23 05:10:04;;;;;;;148.38;54.38;;;;;;;-3.56;88.80;146789.61;1739000;81;21950;-59
2022/01/23 05:12:39;;;;;;;;;;;;;;;-3.59;88.68;146783.22;1743586;80;21124;-59
2022/01/23 05:15:10;;;;;;;39.83;16.65;;;;;;;-3.61;88.62;146778.09;1755008;81;20224;-60
2022/01/23 05:17:37;;;;;;;22.95;9.20;;;;;;;-3.62;88.65;146775.53;1740152;81;21048;-59
2022/01/23 05:20:06;;;;;;;55.98;20.48;;;;;;;-3.60;88.77;146780.66;1743779;81;21534;-60
2022/01/23 05:22:46;;;;;;;43.98;17.50;;;;;;;-3.58;88.77;146785.78;1742804;81;21036;-59
2022/01/23 05:27:45;;;;;;;11.25;5.22;;;;;;;-3.57;88.79;146788.34;1748113;80;21040;-60
2022/01/23 05:30:12;;;;;;;16.40;4.97;;;;;;;-3.56;88.74;146790.91;1743891;80;21482;-58
2022/01/23 05:32:41;;;;;;;9.10;4.27;;;;;;;-3.60;88.71;146780.66;1737136;80;21489;-58
2022/01/23 05:35:10;;;;;;;28.38;10.63;;;;;;;-3.59;88.74;146783.22;1740558;80;21553;-59
2022/01/23 05:37:37;;;;;;;95.50;35.45;;;;;;;-3.61;88.86;146778.09;1746325;81;21028;-59
2022/01/23 05:40:08;;;;;;;48.42;18.98;;;;;;;-3.62;88.94;146775.53;1752526;81;21517;-59
2022/01/23 05:42:37;;;;;;;31.52;10.15;;;;;;;-3.62;88.98;146776.78;1742410;80;21441;-59
2022/01/23 05:45:05;;;;;;;18.73;8.33;;;;;;;-3.62;89.15;146775.53;1736701;81;21530;-59
2022/01/23 05:47:33;;;;;;;13.28;5.67;;;;;;;-3.61;89.11;146778.09;1731988;80;21029;-59
2022/01/23 05:50:07;;;;;;;15.10;6.12;;;;;;;-3.58;89.02;146785.78;1743896;81;21084;-59
2022/01/23 05:52:54;;;;;;;68.28;25.05;;;;;;;-3.54;88.94;146796.03;1745252;80;21517;-60
2022/01/23 05:55:29;;;;;;;98.40;36.93;;;;;;;-3.54;88.76;146796.03;1744464;80;21823;-59
2022/01/23 05:58:01;;;;;;;99.17;36.90;;;;;;;-3.54;88.66;146796.03;1681021;80;21053;-59
2022/01/23 06:00:36;;;;;;;81.85;31.42;;;;;;;-3.52;88.59;146801.17;1763363;80;21072;-59
2022/01/23 06:03:04;;;;;;;41.08;15.23;;;;;;;-3.52;88.39;146801.17;1756054;80;21533;-59
2022/01/23 06:05:44;;;;;;;42.27;14.18;;;;;;;-3.50;88.36;146806.30;1726271;80;21087;-58
2022/01/23 06:13:21;;;;;;;16.73;5.65;;;;;;;-3.39;87.97;146831.98;1753140;80;21005;-59
2022/01/23 06:15:47;;;;;;;13.58;4.95;;;;;;;-3.37;87.77;146837.11;1757151;80;21056;-59
2022/01/23 06:18:14;;;;;;;9.98;4.42;;;;;;;-3.36;87.70;146840.94;1740108;80;21014;-59
2022/01/23 06:20:59;;;;;;;;;;;;;;;-3.35;87.53;146842.25;1755212;81;21178;-60
2022/01/23 06:23:47;;;;;;;7.63;4.30;;;;;;;-3.35;87.46;146842.25;1746093;81;20344;-59
2022/01/23 06:26:17;;;;;;;15.28;5.78;;;;;;;-3.39;87.55;146831.98;1753591;80;21567;-60
2022/01/23 06:28:50;;;;;;;13.22;4.60;;;;;;;-3.39;87.58;146831.98;1747499;81;21509;-60
2022/01/23 06:31:18;;;;;;;12.15;4.20;;;;;;;-3.38;87.52;146834.55;1746151;81;21025;-60
2022/01/23 06:33:44;;;;;;;21.95;7.33;;;;;;;-3.38;87.49;146835.81;1755360;80;21781;-59
2022/01/23 06:36:11;;;;;;;22.95;8.73;;;;;;;-3.40;87.28;146829.42;1747854;80;21513;-59
2022/01/23 06:38:38;;;;;;;19.45;7.12;;;;;;;-3.40;87.29;146829.42;1736693;81;21095;-59
2022/01/23 06:41:06;;;;;;;13.25;4.42;;;;;;;-3.41;87.28;146828.13;1752628;81;21445;-60
2022/01/23 06:43:46;;;;;;;56.10;22.62;;;;;;;-3.41;87.22;146826.86;1737206;81;21358;-59
2022/01/23 06:46:15;;;;;;;153.87;55.43;;;;;;;-3.40;87.34;146829.42;1752073;80;21678;-59
2022/01/23 06:48:43;;;;;;;81.72;31.57;;;;;;;-3.38;87.28;146834.55;1727152;82;21117;-59
2022/01/23 06:51:09;;;;;;;18.70;8.48;;;;;;;-3.35;87.34;146842.25;1687185;84;21068;-59
2022/01/23 06:53:36;;;;;;;33.78;12.70;;;;;;;-3.33;87.10;146847.37;1703097;82;21068;-60
2022/01/23 06:56:04;;;;;;;28.42;10.75;;;;;;;-3.31;87.03;146853.81;1693394;84;21084;-59
2022/01/23 06:58:31;;;;;;;58.85;19.27;;;;;;;-3.26;86.99;146864.06;1696799;84;21116;-60
2022/01/23 07:00:59;;;;;;;61.08;21.73;;;;;;;-3.21;86.90;146878.14;1700810;84;21047;-59
2022/01/23 07:03:29;;;;;;;82.42;31.30;;;;;;;-3.20;86.76;146880.77;1695282;84;21069;-59
2022/01/23 07:05:58;;;;;;;47.93;20.48;;;;;;;-3.16;86.82;146889.72;1698106;84;21066;-59
2022/01/23 07:08:33;;;;;;;49.75;20.45;;;;;;;-3.10;86.74;146903.84;1697289;84;21482;-59
2022/01/23 07:11:04;;;;;;;21.73;8.40;;;;;;;-3.09;86.44;146906.41;1698302;84;21794;-59
2022/01/23 07:13:41;;;;;;;13.50;5.35;;;;;;;-3.05;86.40;146916.67;1698407;82;21049;-60
2022/01/23 07:16:18;;;;;;;15.60;5.00;;;;;;;-3.01;86.22;146926.94;1695753;84;21072;-60
2022/01/23 07:19:06;;;;;;;11.28;4.55;;;;;;;-2.97;86.14;146937.23;1698659;84;21115;-58
2022/01/23 07:21:35;;;;;;;14.33;5.42;;;;;;;-2.90;85.93;146953.89;1696866;83;21040;-59
2022/01/23 07:24:03;;;;;;;22.32;7.70;;;;;;;-2.90;85.48;146953.89;1695067;83;21159;-59
2022/01/23 07:26:32;;;;;;;10.18;5.70;;;;;;;-2.91;85.29;146951.31;1696525;84;21061;-59
2022/01/23 07:29:02;;;;;;;106.95;37.60;;;;;;;-2.91;85.31;146952.63;1693821;83;21334;-59
2022/01/23 07:34:03;;;;;;;384.75;132.03;;;;;;;-2.91;85.47;146951.31;1691013;84;21092;-60
2022/01/23 07:36:32;;;;;;;34.70;13.72;;;;;;;-2.92;85.65;146950.06;1699234;84;21120;-60
2022/01/23 07:38:59;;;;;;;75.97;26.35;;;;;;;-2.86;85.61;146964.19;1699422;83;21552;-61
2022/01/23 07:41:28;;;;;;;52.95;19.35;;;;;;;-2.84;85.36;146968.02;1693620;84;21109;-60
2022/01/23 07:43:58;;;;;;;54.98;20.55;;;;;;;-2.83;85.49;146970.59;1700216;84;21062;-59
2022/01/23 07:46:42;;;;;;;175.10;66.40;;;;;;;-2.76;85.46;146988.59;1655056;86;21175;-60
2022/01/23 07:49:17;;;;;;;173.35;65.97;;;;;;;-2.69;85.35;147006.56;1682438;83;21012;-60
2022/01/23 07:51:45;;;;;;;40.03;14.43;;;;;;;-2.64;85.26;147018.13;1685124;83;21632;-60
2022/01/23 07:54:30;;;;;;;;;;;;;;;-2.60;85.15;147029.66;1705098;83;21040;-60
2022/01/23 07:57:08;;;;;;;34.08;13.83;;;;;;;-2.54;85.05;147043.78;1689632;83;20217;-59
2022/01/23 07:59:37;;;;;;;142.32;51.77;;;;;;;-2.48;84.94;147057.94;1694444;83;21026;-59
2022/01/23 08:02:12;;;;;;;124.87;47.35;;;;;;;-2.42;85.01;147073.31;1683073;83;21566;-60
2022/01/23 08:04:39;;;;;;;43.02;16.02;;;;;;;-2.32;84.77;147097.73;1704710;83;21514;-60
2022/01/23 08:07:11;;;;;;;107.03;39.50;;;;;;;-2.27;84.02;147109.31;1680460;84;21053;-60
2022/01/23 08:09:40;;;;;;;190.68;71.05;;;;;;;-2.23;84.10;147119.56;1668333;85;21093;-59
2022/01/23 08:12:08;;;;;;;111.40;41.83;;;;;;;-2.16;84.08;147137.53;1705196;83;21510;-59
2022/01/23 08:14:35;;;;;;;73.95;29.82;;;;;;;-2.12;83.98;147146.55;1697642;83;21538;-60
2022/01/23 08:17:03;;;;;;;25.32;10.00;;;;;;;-2.04;83.86;147168.39;1705701;84;21111;-60
2022/01/23 08:19:30;;;;;;;57.62;24.18;;;;;;;-1.96;83.29;147186.36;1699791;84;21481;-59
2022/01/23 08:21:57;;;;;;;21.90;8.20;;;;;;;-1.91;82.94;147200.52;1699693;83;21115;-59
2022/01/23 08:24:24;;;;;;;10.53;5.33;;;;;;;-1.81;82.54;147223.63;1699203;84;21426;-60
2022/01/23 08:26:50;;;;;;;30.70;11.50;;;;;;;-1.75;81.89;147239.08;1697877;83;21147;-59
2022/01/23 08:29:17;;;;;;;13.83;5.10;;;;;;;-1.69;81.66;147253.17;1698756;83;21013;-59
2022/01/23 08:31:45;;;;;;;14.35;4.42;;;;;;;-1.64;80.91;147266.06;1697100;84;21124;-60
2022/01/23 08:34:12;;;;;;;16.00;7.85;;;;;;;-1.64;80.70;147266.06;1700333;83;21185;-59
2022/01/23 08:36:39;;;;;;;12.43;5.55;;;;;;;-1.65;80.28;147264.75;1704448;83;21095;-61
2022/01/23 08:39:06;;;;;;;9.25;5.12;;;;;;;-1.66;80.34;147260.87;1692561;83;21621;-60
2022/01/23 08:41:52;;;;;;;49.30;19.62;;;;;;;-1.67;80.41;147258.31;1694502;84;21585;-59
2022/01/23 08:44:21;;;;;;;11.43;6.03;;;;;;;-1.64;80.30;147266.06;1702574;82;21431;-59
2022/01/23 08:46:47;;;;;;;20.00;6.83;;;;;;;-1.65;79.81;147263.50;1703779;83;20988;-59
2022/01/23 08:49:16;;;;;;;12.47;5.83;;;;;;;-1.64;79.92;147266.06;1698030;83;21034;-59
2022/01/23 08:51:45;;;;;;;106.95;42.93;;;;;;;-1.60;79.71;147276.34;1703180;84;21732;-60
2022/01/23 08:54:12;;;;;;;36.05;15.38;;;;;;;-1.62;79.64;147271.20;1693082;83;21105;-59
2022/01/23 08:56:39;;;;;;;32.08;13.93;;;;;;;-1.63;79.76;147268.64;1697225;84;21096;-61
2022/01/23 08:59:06;;;;;;;12.50;6.10;;;;;;;-1.60;79.92;147277.59;1698416;82;21075;-60
2022/01/23 09:01:34;;;;;;;24.90;9.63;;;;;;;-1.55;79.60;147289.19;1696902;84;21108;-60
2022/01/23 09:04:02;;;;;;;72.92;31.57;;;;;;;-1.49;79.82;147303.33;1703754;83;21252;-60
2022/01/23 09:06:29;;;;;;;65.78;26.50;;;;;;;-1.40;79.48;147325.19;1704080;83;21498;-60
2022/01/23 09:08:58;;;;;;;34.83;14.53;;;;;;;-1.36;79.13;147335.47;1705705;84;21652;-59
2022/01/23 09:14:10;;;;;;;70.87;30.68;;;;;;;-1.33;78.36;147343.17;1707079;82;21078;-60
2022/01/23 09:16:43;;;;;;;23.22;11.08;;;;;;;-1.36;78.28;147335.47;1696886;84;21523;-59
2022/01/23 09:19:10;;;;;;;15.15;5.83;;;;;;;-1.35;78.41;147339.30;1700224;83;21527;-60
2022/01/23 09:21:38;;;;;;;39.78;18.45;;;;;;;-1.28;78.01;147356.02;1702163;83;21061;-60
2022/01/23 09:24:06;;;;;;;12.00;6.15;;;;;;;-1.24;77.88;147366.28;1697978;84;21036;-59
2022/01/23 09:26:35;;;;;;;11.90;5.62;;;;;;;-1.14;77.99;147389.45;1706222;84;21104;-59
2022/01/23 09:29:12;;;;;;;11.38;4.95;;;;;;;-1.07;77.11;147408.75;1700721;83;21125;-60
2022/01/23 09:31:46;;;;;;;19.55;5.47;;;;;;;-1.04;76.72;147415.16;1669795;84;21040;-63
2022/01/23 09:34:04;;;;;;;9.58;4.75;;;;;;;-1.04;76.44;147415.16;1702188;83;21547;-59
2022/01/23 09:36:31;;;;;;;13.98;4.60;;;;;;;-1.00;76.53;147425.44;1687454;83;21061;-60
2022/01/23 09:38:58;;;;;;;13.38;5.50;;;;;;;-0.96;75.65;147435.75;1672589;84;21147;-60
2022/01/23 09:41:28;;;;;;;12.20;5.00;;;;;;;-0.94;75.55;147439.59;1676532;85;21547;-59
2022/01/23 09:43:55;;;;;;;12.90;4.20;;;;;;;-0.88;75.75;147456.31;1672245;83;21505;-59
2022/01/23 09:46:24;;;;;;;8.58;4.30;;;;;;;-0.81;74.58;147471.73;1678179;83;20980;-59
2022/01/23 09:48:52;;;;;;;14.25;3.80;;;;;;;-0.79;74.07;147478.19;1733770;81;21092;-59
2022/01/23 09:51:23;;;;;;;14.80;4.53;;;;;;;-0.78;73.24;147479.44;1683031;83;21069;-60
2022/01/23 09:53:52;;;;;;;8.70;3.75;;;;;;;-0.73;73.18;147492.34;1669531;83;21099;-59
2022/01/23 09:56:27;;;;;;;19.23;4.35;;;;;;;-0.69;71.33;147502.63;1689384;83;21097;-59
2022/01/23 09:58:52;;;;;;;7.83;3.65;;;;;;;-0.71;71.68;147497.48;1688784;84;21069;-60
2022/01/23 10:01:20;;;;;;;26.50;4.03;;;;;;;-0.72;71.47;147494.91;1695160;84;21088;-60
2022/01/23 10:03:48;;;;;;;7.10;3.47;;;;;;;-0.70;70.78;147498.75;1678101;84;21127;-60
2022/01/23 10:06:14;;;;;;;18.42;4.53;;;;;;;-0.68;70.31;147505.19;1691867;84;21795;-60
2022/01/23 10:08:42;;;;;;;11.93;4.40;;;;;;;-0.65;70.74;147512.91;1696490;84;21589;-60
2022/01/23 10:11:12;;;;;;;14.58;6.42;;;;;;;-0.60;70.51;147525.75;1691616;83;21028;-60
2022/01/23 10:13:40;;;;;;;10.20;3.60;;;;;;;-0.53;70.33;147542.48;1692798;83;21084;-59
2022/01/23 10:16:07;;;;;;;5.90;3.30;;;;;;;-0.51;67.77;147546.37;1689519;82;21040;-60
2022/01/23 10:18:34;;;;;;;13.32;3.95;;;;;;;-0.50;67.53;147550.20;1678255;84;21127;-60
2022/01/23 10:21:00;;;;;;;13.80;5.35;;;;;;;-0.48;68.28;147554.08;1680147;84;21035;-61
2022/01/23 10:23:29;;;;;;;6.62;3.52;;;;;;;-0.44;68.46;147564.36;1700260;83;20986;-60
2022/01/23 10:25:56;;;;;;;6.87;3.75;;;;;;;-0.40;67.41;147573.37;1697112;83;21573;-59
2022/01/23 10:28:28;;;;;;;6.35;3.70;;;;;;;-0.39;67.53;147575.95;1689888;84;21096;-60
2022/01/23 10:30:57;;;;;;;12.78;3.72;;;;;;;-0.37;66.46;147581.09;1699999;84;21173;-60
2022/01/23 10:33:37;;;;;;;13.62;2.72;;;;;;;-0.38;66.34;147578.53;1687554;84;20986;-60
2022/01/23 10:36:12;;;;;;;59.27;26.68;;;;;;;-0.39;64.84;147577.22;1695649;84;21072;-60
2022/01/23 10:38:56;;;;;;;33.18;14.93;;;;;;;-0.40;65.57;147573.37;1692674;83;21111;-60
2022/01/23 10:41:44;;;;;;;32.15;14.83;;;;;;;-0.40;65.96;147574.64;1693579;83;21446;-59
2022/01/23 10:49:50;;;;;;;56.33;23.05;;;;;;;-0.35;64.68;147587.50;1693073;83;21091;-59
2022/01/23 10:52:43;;;;;;;19.37;8.55;;;;;;;-0.35;65.01;147587.50;1698777;83;21072;-61
2022/01/23 10:55:34;;;;;;;30.72;12.55;;;;;;;-0.33;64.75;147592.69;1693224;83;20980;-60
2022/01/23 10:58:06;;;;;;;9.05;4.37;;;;;;;-0.28;64.22;147602.97;1687038;83;21129;-60
2022/01/23 11:00:38;;;;;;;16.73;5.90;;;;;;;-0.23;63.76;147617.09;1692036;83;21060;-60
2022/01/23 11:03:20;;;;;;;6.00;3.08;;;;;;;-0.18;61.95;147628.69;1678837;83;21069;-61
2022/01/23 11:05:48;;;;;;;5.08;2.60;;;;;;;-0.23;60.87;147617.09;1674477;83;21027;-60
2022/01/23 11:08:24;;;;;;;11.00;4.50;;;;;;;-0.27;60.26;147605.55;1694351;82;21098;-59
2022/01/23 11:11:06;;;;;;;10.40;3.80;;;;;;;-0.30;60.60;147600.41;1671295;83;21125;-61
2022/01/23 11:19:30;;;;;;;8.53;3.33;;;;;;;-0.28;60.30;147602.97;1692837;84;21104;-59
2022/01/23 11:21:59;;;;;;;9.00;3.27;;;;;;;-0.18;60.60;147628.69;1668423;83;20992;-60
2022/01/23 11:24:39;;;;;;;8.75;3.37;;;;;;;-0.09;60.34;147651.88;1701890;83;21794;-59
2022/01/23 11:27:08;;;;;;;6.45;3.60;;;;;;;-0.02;60.70;147668.56;1673297;83;21482;-60
2022/01/23 11:29:35;;;;;;;5.42;3.02;;;;;;;0.03;59.73;147681.47;1735558;82;21017;-60
2022/01/23 11:32:01;;;;;;;6.85;3.00;;;;;;;-0.02;59.05;147669.88;1745836;80;21124;-60
2022/01/23 11:34:29;;;;;;;7.40;3.20;;;;;;;-0.08;58.23;147654.45;1712760;80;21053;-60
2022/01/23 11:36:56;;;;;;;5.65;2.10;;;;;;;-0.10;57.95;147649.31;1733826;81;21538;-60
2022/01/23 11:39:40;;;;;;;5.03;2.87;;;;;;;-0.10;57.13;147649.31;1722911;80;21063;-60
2022/01/23 11:53:53;;;;;;;8.45;3.17;;;;;;;0.12;56.49;147703.36;1728178;80;21076;-59
2022/01/23 11:56:40;;;;;;;9.58;3.22;;;;;;;0.23;57.37;147730.39;1743869;80;21036;-58
2022/01/23 11:59:27;;;;;;;7.45;2.87;;;;;;;0.32;57.84;147752.23;1753585;81;21456;-59
2022/01/23 12:02:13;;;;;;;5.12;2.52;;;;;;;0.35;57.32;147760.00;1727811;80;21104;-59
2022/01/23 12:04:41;;;;;;;8.03;2.70;;;;;;;0.36;56.03;147762.56;1743334;81;21625;-59
2022/01/23 12:07:19;;;;;;;6.70;2.70;;;;;;;0.30;55.53;147747.09;1737918;80;21047;-59
2022/01/23 12:10:25;;;;;;;5.50;2.70;;;;;;;0.22;55.94;147729.08;1747607;80;21044;-59
2022/01/23 12:12:50;;;;;;;11.75;3.40;;;;;;;0.18;56.20;147718.80;1728677;80;21418;-60
2022/01/23 12:18:25;;;;;;;9.00;3.47;;;;;;;0.19;56.69;147721.38;1740280;81;22156;-60
2022/01/23 12:20:52;;;;;;;8.75;3.00;;;;;;;0.20;56.95;147723.94;1751701;81;21076;-60
2022/01/23 12:23:20;;;;;;;5.50;2.70;;;;;;;0.21;55.66;147726.50;1729092;81;21376;-60
2022/01/23 12:25:51;;;;;;;10.68;2.72;;;;;;;0.24;55.04;147732.97;1729091;81;21111;-60
2022/01/23 12:28:32;;;;;;;10.48;2.33;;;;;;;0.22;54.65;147727.77;1727873;81;21056;-59
2022/01/23 12:31:14;;;;;;;7.28;2.58;;;;;;;0.21;54.40;147726.50;1741931;81;21086;-59
2022/01/23 12:33:45;;;;;;;12.73;2.65;;;;;;;0.23;53.71;147731.66;1694862;83;21117;-59
2022/01/23 12:36:20;;;;;;;5.00;2.40;;;;;;;0.23;53.87;147731.66;1694413;83;21508;-59
2022/01/23 12:38:54;;;;;;;5.95;2.10;;;;;;;0.25;53.59;147735.53;1677266;83;21251;-59
2022/01/23 12:41:43;;;;;;;14.60;2.47;;;;;;;0.20;52.82;147723.94;1744210;80;21061;-60
2022/01/23 12:44:28;;;;;;;14.03;2.37;;;;;;;0.12;52.46;147703.36;1736537;80;21486;-58
2022/01/23 12:47:04;;;;;;;7.53;2.22;;;;;;;0.09;52.60;147696.91;1735554;81;21389;-59
2022/01/23 12:49:52;;;;;;;21.42;3.00;;;;;;;0.16;52.46;147712.34;1738513;80;21104;-61
2022/01/23 12:52:23;;;;;;;9.55;2.65;;;;;;;0.19;53.01;147721.38;1726412;80;21053;-60
2022/01/23 12:54:58;;;;;;;6.28;2.85;;;;;;;0.22;53.43;147729.08;1732560;80;22095;-61
2022/01/23 12:57:41;;;;;;;14.00;2.87;;;;;;;0.23;53.96;147730.39;1745996;80;21452;-59
2022/01/23 13:00:09;;;;;;;6.87;2.67;;;;;;;0.26;54.26;147739.37;1719815;80;21731;-59
2022/01/23 13:02:56;;;;;;;14.50;2.50;;;;;;;0.22;54.23;147729.08;1717304;82;21448;-58
2022/01/23 13:05:23;;;;;;;5.85;2.55;;;;;;;0.18;54.01;147718.80;1725740;82;21057;-58
2022/01/23 13:08:07;;;;;;;3.17;2.00;;;;;;;0.13;53.66;147705.94;1724682;82;21048;-60
2022/01/23 13:12:56;;;;;;;4.60;2.05;;;;;;;0.08;53.07;147693.03;1692562;84;21562;-60
2022/01/23 13:15:45;;;;;;;7.15;2.02;;;;;;;0.06;52.28;147689.19;1681598;83;21050;-58
2022/01/23 13:31:45;;;;;;;5.87;2.45;;;;;;;0.02;52.37;147677.59;1744846;80;21006;-59
2022/01/23 13:34:25;;;;;;;3.90;2.12;;;;;;;-0.02;52.10;147669.88;1738815;81;21088;-60
2022/01/23 13:37:09;;;;;;;5.15;2.20;;;;;;;-0.07;52.00;147657.02;1732156;80;21115;-60
2022/01/23 13:39:52;;;;;;;16.82;2.70;;;;;;;-0.09;52.31;147651.88;1738991;80;21043;-59
2022/01/23 13:51:57;;;;;;;5.80;2.40;;;;;;;-0.16;53.96;147633.83;1738846;80;21120;-60
2022/01/23 13:59:57;;;;;;;11.18;3.35;;;;;;;-0.25;51.48;147610.69;1747974;81;21087;-61
2022/01/23 14:02:29;;;;;;;5.70;2.50;;;;;;;-0.25;52.28;147610.69;1700356;83;21030;-59
2022/01/23 14:05:18;;;;;;;17.10;2.83;;;;;;;-0.28;52.98;147604.23;1753860;80;21138;-59
2022/01/23 14:07:57;;;;;;;5.08;2.50;;;;;;;-0.27;53.33;147605.55;1728923;80;21036;-59
2022/01/23 14:10:30;;;;;;;8.05;2.33;;;;;;;-0.28;53.36;147602.97;1734394;80;21064;-59
2022/01/23 14:13:15;;;;;;;6.17;2.02;;;;;;;-0.30;53.07;147600.41;1734964;80;21091;-58
2022/01/23 14:15:50;;;;;;;6.92;2.60;;;;;;;-0.31;53.09;147596.53;1740064;80;21514;-61
2022/01/23 14:18:24;;;;;;;;;;;;;;;-0.35;53.46;147586.23;1725885;80;21948;-59
2022/01/23 14:21:03;;;;;;;7.83;2.62;;;;;;;-0.38;53.77;147579.78;1742686;80;20175;-59
2022/01/23 14:23:30;;;;;;;6.87;2.80;;;;;;;-0.39;54.00;147575.95;1734665;80;21010;-60
2022/01/23 14:26:00;;;;;;;4.17;2.35;;;;;;;-0.42;54.10;147569.50;1735931;80;21072;-59
2022/01/23 14:28:40;;;;;;;11.08;3.70;;;;;;;-0.45;54.31;147563.06;1722931;81;21045;-60
2022/01/23 14:31:15;;;;;;;11.50;3.20;;;;;;;-0.44;54.35;147564.36;1732785;81;21108;-60
2022/01/23 14:33:38;;;;;;;9.43;3.52;;;;;;;-0.44;54.42;147564.36;1733569;80;21097;-58
2022/01/23 14:36:24;;;;;;;13.75;3.70;;;;;;;-0.47;54.23;147557.91;1750915;80;21096;-61
2022/01/23 14:39:07;;;;;;;9.83;3.65;;;;;;;-0.48;54.23;147554.08;1731663;80;21051;-60
2022/01/23 14:41:41;;;;;;;13.15;3.35;;;;;;;-0.51;53.83;147547.62;1729403;80;21068;-59
2022/01/23 14:44:20;;;;;;;9.33;3.40;;;;;;;-0.52;53.69;147545.06;1743415;80;21112;-62
2022/01/23 14:46:49;;;;;;;10.60;4.22;;;;;;;-0.53;53.83;147541.22;1746721;80;21105;-59
2022/01/23 14:49:23;;;;;;;14.35;4.70;;;;;;;-0.53;54.78;147541.22;1741175;81;21040;-60
2022/01/23 14:51:45;;;;;;;13.28;5.03;;;;;;;-0.54;56.07;147538.66;1740500;80;21975;-60
2022/01/23 14:54:11;;;;;;;7.40;3.95;;;;;;;-0.58;57.24;147530.91;1751867;80;21054;-60
2022/01/23 14:56:39;;;;;;;10.55;3.62;;;;;;;-0.64;58.28;147515.47;1683705;83;21151;-61
2022/01/23 14:59:10;;;;;;;20.12;3.83;;;;;;;-0.71;58.60;147497.48;1739596;80;21590;-61
2022/01/23 15:01:38;;;;;;;11.57;4.42;;;;;;;-0.80;59.09;147474.31;1702153;82;21028;-61